• Join FlightAware (Why Join?)
  • Login
  • US Flag 
04:36PM EST


 

Airport Tracker/Info


-or-


 

Live Flight TrackerFlight Track Log ✈ DAL550 ✈ 24-Jul-2012 ✈ MDST / STI - KJFK

Flight Track Log - Related Links

Times and Time Zones

All times are in EDT time to prevent confusion due to time zone crossing. See the DAL550 flight status page for this flight to view local times or setup timezone preferences in your user account.

Time Position Orientation Groundspeed Altitude Reporting Facility
EDT Latitude Longitude Course Direction KTS MPH feet Rate Location/Type
01:25PM 19.5031 -70.4494 323° Northwest 463 533 9,900  Level Miami Center
01:26PM 19.5783 -70.5097 325° Northwest 393 452 11,700 1,800 Climbing Miami Center
01:27PM 19.6578 -70.5678 327° Northwest 373 429 13,600 1,800 Climbing Miami Center
01:28PM 19.7478 -70.6297 325° Northwest 368 423 15,400 2,280 Climbing Miami Center
01:29PM 19.8358 -70.6961 326° Northwest 379 436 18,200 2,640 Climbing Miami Center
01:30PM 19.9172 -70.7542 326° Northwest 374 430 20,700 1,620 Climbing Miami Center
01:31PM 20.0031 -70.8167 326° Northwest 367 422 21,500 660 Climbing Miami Center
01:32PM 20.0972 -70.8853 325° Northwest 389 448 22,100 540 Climbing Miami Center
01:33PM 20.2003 -70.9625 325° Northwest 425 489 22,600 660 Climbing Miami Center
01:34PM 20.3075 -71.0419 322° Northwest 455 524 23,500 960 Climbing Miami Center
01:35PM 20.4150 -71.1303 324° Northwest 474 545 24,600 1,140 Climbing Miami Center
01:36PM 20.5264 -71.2164 324° Northwest 489 563 25,800 1,440 Climbing Miami Center
01:37PM 20.6358 -71.3028 323° Northwest 494 568 27,500 1,680 Climbing Miami Center
01:38PM 20.7367 -71.3850 324° Northwest 487 560 29,200 1,440 Climbing Miami Center
01:39PM 20.8439 -71.4694 324° Northwest 477 549 30,400 1,080 Climbing Miami Center
01:40PM 20.9447 -71.5475 323° Northwest 467 537 31,400 960 Climbing Miami Center
01:41PM 21.0497 -71.6322 323° Northwest 467 537 32,400 960 Climbing Miami Center
01:42PM 21.1506 -71.7128 324° Northwest 467 537 33,400 780 Climbing Miami Center
01:43PM 21.2556 -71.7936 323° Northwest 467 537 34,000 300 Climbing Miami Center
01:44PM 21.3669 -71.8850 323° Northwest 467 537 34,000  Level Miami Center
01:45PM 21.4675 -71.9661 325° Northwest 467 537 34,000  Level Miami Center
01:46PM 21.5703 -72.0447 323° Northwest 462 532 34,000  Level Miami Center
01:47PM 21.6664 -72.1217 323° Northwest 451 519 34,000  Level Miami Center
01:48PM 21.7672 -72.2031 323° Northwest 451 519 34,000  Level Miami Center
01:49PM 21.8656 -72.2822 324° Northwest 451 519 34,000  Level Miami Center
01:50PM 21.9658 -72.3617 323° Northwest 451 519 34,000  Level Miami Center
01:51PM 22.0622 -72.4411 325° Northwest 451 519 34,000  Level Miami Center
01:52PM 22.1603 -72.5164 323° Northwest 446 513 34,000  Level Miami Center
01:53PM 22.2586 -72.5961 322° Northwest 446 513 34,000  Level Miami Center
01:54PM 22.3569 -72.6803 325° Northwest 446 513 34,000  Level Miami Center
01:55PM 22.4594 -72.7581 323° Northwest 446 513 34,000  Level Miami Center
01:56PM 22.5575 -72.8381 322° Northwest 446 513 34,000  Level Miami Center
01:57PM 22.6558 -72.9206 323° Northwest 446 513 34,000  Level Miami Center
01:59PM 22.8522 -73.0836 324° Northwest 451 519 34,000  Level Miami Center
02:00PM 22.9417 -73.1531 321° Northwest 443 510 34,000  Level Miami Center
02:01PM 23.0375 -73.2361 325° Northwest 443 510 34,000  Level Miami Center
02:02PM 23.1397 -73.3144 323° Northwest 443 510 34,000  Level Miami Center
02:03PM 23.2397 -73.3953 323° Northwest 448 516 34,000  Level Miami Center
02:04PM 23.3356 -73.4742 321° Northwest 448 516 34,000  Level Miami Center
02:05PM 23.4292 -73.5556 323° Northwest 442 509 34,000  Level Miami Center
02:06PM 23.5292 -73.6367 323° Northwest 442 509 34,000  Level Miami Center
02:07PM 23.6292 -73.7203 323° Northwest 447 514 34,000  Level Miami Center
02:08PM 23.7289 -73.8017 322° Northwest 447 514 34,000  Level Miami Center
02:09PM 23.8247 -73.8833 324° Northwest 447 514 34,000  Level Miami Center
02:10PM 23.9286 -73.9650 322° Northwest 447 514 34,000  Level Miami Center
02:11PM 24.0286 -74.0492 322° Northwest 452 520 34,000  Level Miami Center
02:12PM 24.1242 -74.1314 322° Northwest 452 520 34,000  Level Miami Center
02:13PM 24.2236 -74.2156 323° Northwest 452 520 34,000  Level Miami Center
02:14PM 24.3256 -74.3003 323° Northwest 452 520 34,000  Level Miami Center
02:15PM 24.4250 -74.3825 322° Northwest 452 520 34,000  Level Miami Center
02:16PM 24.5247 -74.4675 323° Northwest 452 520 34,000  Level Miami Center
02:17PM 24.6242 -74.5500 323° Northwest 452 520 34,000  Level Miami Center
02:18PM 24.7258 -74.6350 321° Northwest 457 526 34,000  Level Miami Center
02:19PM 24.8253 -74.7225 322° Northwest 457 526 34,000  Level Miami Center
02:20PM 24.9269 -74.8100 323° Northwest 452 520 34,000  Level Miami Center
02:21PM 25.0264 -74.8933 322° Northwest 452 520 34,000  Level Miami Center
02:22PM 25.1278 -74.9811 323° Northwest 452 520 34,000  Level Miami Center
02:23PM 25.2292 -75.0669 321° Northwest 452 520 34,000  Level Miami Center
02:24PM 25.3283 -75.1550 323° Northwest 452 520 34,000  Level Miami Center
02:25PM 25.4297 -75.2386 322° Northwest 452 520 34,000  Level Miami Center
02:26PM 25.5308 -75.3272 322° Northwest 452 520 34,000  Level Miami Center
02:27PM 25.6319 -75.4136 322° Northwest 452 520 34,000 60 Level Miami Center
02:28PM 25.7333 -75.5022 322° Northwest 452 520 34,200 480 Climbing Miami Center
02:29PM 25.8322 -75.5889 323° Northwest 452 520 35,000 360 Climbing Miami Center
02:30PM 25.9353 -75.6756 322° Northwest 454 522 35,000  Level Miami Center
02:31PM 26.0364 -75.7647 321° Northwest 460 529 35,000  Level Miami Center
02:32PM 26.1331 -75.8519 322° Northwest 450 518 35,000  Level Miami Center
02:33PM 26.2339 -75.9389 321° Northwest 455 524 35,000  Level Miami Center
02:34PM 26.3347 -76.0286 322° Northwest 461 531 35,000  Level Miami Center
02:35PM 26.4333 -76.1139 321° Northwest 453 521 35,000  Level Miami Center
02:36PM 26.5406 -76.2106 323° Northwest 468 539 35,000  Level Miami Center
02:37PM 26.6347 -76.2892 321° Northwest 456 525 35,000  Level Miami Center
02:38PM 26.7356 -76.3817 320° Northwest 458 527 35,000  Level Miami Center
02:39PM 26.8422 -76.4814 323° Northwest 462 532 35,000  Level Miami Center
02:40PM 26.9428 -76.5672 322° Northwest 467 537 35,000  Level Miami Center
02:41PM 27.0453 -76.6558 322° Northwest 467 537 35,000  Level Miami Center
02:42PM 27.1436 -76.7419 319° Northwest 467 537 35,000  Level Miami Center
02:43PM 27.2500 -76.8447 329° Northwest 474 545 35,000  Level Miami Center
02:44PM 27.3586 -76.9194 350° North 474 545 35,000  Level Miami Center
02:45PM 27.4883 -76.9453 352° North 458 527 35,000  Level Miami Center
02:46PM 27.6178 -76.9664 350° North 458 527 35,000  Level Miami Center
02:47PM 27.7450 -76.9922 352° North 458 527 35,000  Level Miami Center
02:48PM 27.8767 -77.0136 352° North 468 539 35,000  Level Miami Center
02:49PM 28.0081 -77.0350 349° North 468 539 35,000  Level Miami Center
02:50PM 28.1417 -77.0633 352° North 474 545 35,000  Level Miami Center
02:51PM 28.2836 -77.0850 351° North 480 552 35,000 -60 Level Miami Center
02:52PM 28.4150 -77.1089 352° North 473 544 34,900  Descending Miami Center
02:53PM 28.5425 -77.1281 350° North 473 544 35,000  Climbing Miami Center
02:54PM 28.6675 -77.1519 351° North 456 525 34,900 -60 Descending Miami Center
02:55PM 28.8117 -77.1783 351° North 480 552 34,900  Level Miami Center
02:56PM 28.9367 -77.2000 353° North 475 547 34,900  Level Miami Center
02:57PM 29.0661 -77.2194 350° North 467 537 35,000  Climbing Miami Center
02:58PM 29.1975 -77.2461 352° North 467 537 35,000  Level Miami Center
02:59PM 29.3206 -77.2656 351° North 467 537 35,000 -60 Level Miami Center
03:00PM 29.4478 -77.2875 351° North 465 535 34,900 -60 Descending Miami Center
03:01PM 29.5811 -77.3117 351° North 466 536 34,900  Level Miami Center
03:02PM 29.7103 -77.3361 351° North 465 535 35,000  Climbing Miami Center
03:03PM 29.8397 -77.3597 353° North 555 639 34,900  Descending Jacksonville Center
03:04PM 29.9614 -77.3769 349° North 499 574 35,000  Climbing Jacksonville Center
03:05PM 30.0731 -77.4017 355° North 479 551 35,000  Level Jacksonville Center
03:06PM 30.1989 -77.4136 349° North 463 533 35,000  Level Jacksonville Center
03:07PM 30.3253 -77.4425 North 452 520 35,000  Level Jacksonville Center
03:08PM 30.4500 -77.4283 North 446 513 35,000  Level Jacksonville Center
03:09PM 30.5772 -77.4258 351° North 446 513 35,000  Level Jacksonville Center
03:10PM 30.7014 -77.4500 347° North 451 519 35,000 -60 Level Jacksonville Center
03:11PM 30.8258 -77.4839 349° North 450 518 34,900  Descending Jacksonville Center
03:12PM 30.9522 -77.5131 348° North 450 518 35,000  Climbing Jacksonville Center
03:13PM 31.0769 -77.5447 352° North 455 524 34,900  Descending Jacksonville Center
03:14PM 31.2008 -77.5644 350° North 450 518 35,000  Climbing Jacksonville Center
03:15PM 31.3250 -77.5889 351° North 450 518 35,000  Level Jacksonville Center
03:16PM 31.4511 -77.6133 North 450 518 35,000  Level Jacksonville Center
03:17PM 31.5761 -77.6064 North 450 518 35,000  Level Jacksonville Center
03:18PM 31.7050 -77.5942 North 450 518 35,000  Level Jacksonville Center
03:19PM 31.8300 -77.5869 North 450 518 35,000 -60 Level Jacksonville Center
03:20PM 31.9550 -77.5844 North 450 518 34,900  Descending Jacksonville Center
03:21PM 32.0800 -77.5750 360° North 445 512 35,000  Climbing Jacksonville Center
03:22PM 32.2031 -77.5750 North 445 512 35,000 -60 Level Jacksonville Center
03:23PM 32.3278 -77.5631 North 440 506 34,900 -60 Descending Jacksonville Center
03:24PM 32.4508 -77.5606 North 440 506 34,900  Level Jacksonville Center
03:25PM 32.5758 -77.5558 North 440 506 35,000  Climbing Jacksonville Center
03:26PM 32.6967 -77.5511 North 440 506 35,000 -60 Level Jacksonville Center
03:27PM 32.8233 -77.5386 North 440 506 34,900  Descending Jacksonville Center
03:29PM 33.0922 -77.5272 North 447 514 35,000  Climbing Washington Center
03:30PM 33.2114 -77.5200 North 456 525 35,000  Level Washington Center
03:31PM 33.3281 -77.5178 North 431 496 35,000  Level Washington Center
03:32PM 33.4492 -77.5106 North 426 490 35,000  Level Washington Center
03:33PM 33.5683 -77.5033 North 421 484 35,000  Level Washington Center
03:34PM 33.6872 -77.4961 North 421 484 35,000 -60 Level Washington Center
03:35PM 33.8083 -77.4889 North 421 484 34,900  Descending Washington Center
03:36PM 33.9275 -77.4842 North 421 484 35,000  Climbing Washington Center
03:37PM 34.0486 -77.4767 North 421 484 34,900  Descending Washington Center
03:38PM 34.1656 -77.4719 North 421 484 35,000  Climbing Washington Center
03:39PM 34.2739 -77.4669 14° North 428 493 34,900  Descending Washington Center
03:40PM 34.3872 -77.4317 22° Northeast 421 484 35,000  Climbing Washington Center
03:41PM 34.4964 -77.3786 23° Northeast 410 472 35,000  Level Washington Center
03:42PM 34.6017 -77.3231 22° Northeast 415 478 35,000  Level Washington Center
03:43PM 34.7108 -77.2697 23° Northeast 415 478 35,000 -60 Level Washington Center
03:44PM 34.8203 -77.2139 25° Northeast 415 478 34,900  Descending Washington Center
03:45PM 34.9358 -77.1478 22° Northeast 415 478 35,000  Climbing Washington Center
03:46PM 35.0367 -77.0989 24° Northeast 420 483 34,900  Descending Washington Center
03:47PM 35.1417 -77.0425 23° Northeast 415 478 35,000  Climbing Washington Center
03:48PM 35.2508 -76.9858 24° Northeast 421 484 35,000  Level Washington Center
03:49PM 35.3600 -76.9267 22° Northeast 415 478 35,000  Level Washington Center
03:50PM 35.4817 -76.8675 24° Northeast 420 483 35,000  Level Washington Center
03:51PM 35.5803 -76.8128 23° Northeast 427 491 35,000  Level Washington Center
03:52PM 35.6978 -76.7506 23° Northeast 417 480 35,000 -60 Level Washington Center
03:53PM 35.8089 -76.6933 23° Northeast 422 486 34,900  Descending Washington Center
03:54PM 35.9178 -76.6358 24° Northeast 422 486 35,000  Climbing Washington Center
03:55PM 36.0289 -76.5758 23° Northeast 422 486 35,000 -60 Level Washington Center
03:56PM 36.1378 -76.5178 23° Northeast 422 486 34,900  Descending Washington Center
03:57PM 36.2467 -76.4600 23° Northeast 422 486 35,000  Climbing Washington Center
03:58PM 36.3600 -76.3992 23° Northeast 422 486 35,000  Level Washington Center
03:59PM 36.4708 -76.3411 23° Northeast 427 491 35,000  Level Washington Center
04:00PM 36.5817 -76.2825 23° Northeast 427 491 35,000 -60 Level Washington Center
04:01PM 36.6947 -76.2239 27° Northeast 427 491 34,900  Descending Washington Center
04:02PM 36.8056 -76.1547 23° Northeast 438 504 35,000  Climbing Washington Center
04:03PM 36.9164 -76.0958 20° North 438 504 35,000 -60 Level Washington Center
04:04PM 37.0250 -76.0472 25° Northeast 441 507 34,900  Descending Washington Center
04:05PM 37.1317 -75.9853 24° Northeast 436 502 35,000  Climbing Washington Center
04:06PM 37.2425 -75.9231 24° Northeast 430 495 35,000 -60 Level Washington Center
04:07PM 37.3511 -75.8608 23° Northeast 425 489 34,900  Descending Washington Center
04:08PM 37.4617 -75.8011 24° Northeast 425 489 35,000  Climbing Washington Center
04:09PM 37.5725 -75.7386 22° Northeast 425 489 35,000 -60 Level Washington Center
04:10PM 37.6850 -75.6811 25° Northeast 430 495 34,900  Descending Washington Center
04:11PM 37.7936 -75.6181 23° Northeast 430 495 35,000  Climbing Washington Center
04:12PM 37.9042 -75.5575 24° Northeast 430 495 34,900 -60 Descending Washington Center
04:13PM 38.0167 -75.4942 27° Northeast 430 495 34,900  Level Washington Center
04:14PM 38.1231 -75.4256 27° Northeast 430 495 35,000  Climbing Washington Center
04:15PM 38.2314 -75.3564 24° Northeast 430 495 35,000 -60 Level Washington Center
04:16PM 38.3500 -75.2900 24° Northeast 420 483 34,900 -60 Descending Washington Center
04:17PM 38.4603 -75.2283 19° North 420 483 34,900  Level Washington Center
04:18PM 38.5706 -75.1800 22° Northeast 415 478 34,900  Level Washington Center
04:19PM 38.6808 -75.1236 23° Northeast 415 478 34,900  Level Washington Center
04:20PM 38.7892 -75.0644 21° North 415 478 35,000  Climbing Washington Center
04:21PM 38.8994 -75.0103 25° Northeast 415 478 35,000 -480 Level Washington Center
04:22PM 39.0094 -74.9453 21° North 420 483 34,100 -1,980 Descending Washington Center
04:23PM 39.1114 -74.8961 25° Northeast 420 483 31,100 -2,340 Descending Washington Center
04:24PM 39.2214 -74.8308 49° Northeast 425 489 29,400 -2,040 Descending Washington Center
04:25PM 39.3039 -74.7064 50° Northeast 432 497 27,100 -2,880 Descending Washington Center
04:27PM 39.4836 -74.4264 50° Northeast 454 522 20,300 -2,520 Descending New York Center
04:28PM 39.5733 -74.2883 42° Northeast 454 522 19,000 -960 Descending New York Center
04:29PM 39.6642 -74.1822 40° Northeast 447 514 18,400 -2,280 Descending New York Center
04:30PM 39.7567 -74.0814 39° Northeast 437 503 14,600 -3,120 Descending New York Center
04:31PM 39.8381 -73.9961 28° Northeast 424 488 12,200 -1,800 Descending New York Center
04:32PM 39.9339 -73.9300 21° North 400 460 11,000 -660 Descending New York Center
04:33PM 40.0247 -73.8856 35° Northeast 335 386 11,000 -240 Level New York Center
04:34PM 40.0908 -73.8261 38° Northeast 296 341 10,600 -1,080 Descending New York Center
04:35PM 40.1333 -73.7833 36° Northeast 298 343 9,300 -1,980 Descending New York TRACON
04:35PM 40.1569 -73.7611 32° Northeast 290 334 8,600 -1,680 Descending New York Center
04:36PM 40.2189 -73.7094 19° North 290 334 7,000 -1,500 Descending New York Center
04:37PM 40.2967 -73.6744 North 268 308 5,700 -1,440 Descending New York Center
04:38PM 40.3636 -73.6719 North 263 303 4,200 -1,500 Descending New York Center
04:39PM 40.4167 -73.6667 360° North 256 295 3,100 -1,320 Descending New York TRACON
04:40PM 40.5000 -73.6667 360° North 237 273 2,000 -600 Descending New York TRACON
04:41PM 40.5500 -73.6667 360° North 190 219 1,900 -120 Descending New York TRACON
04:42PM 40.6000 -73.6667 303° West 181 208 1,800 -480 Descending New York TRACON
04:43PM 40.6167 -73.7000 305° West 158 182 1,000 2,760 Descending New York TRACON
04:45PM 40.6767 -73.8139 305° West 153 176 11,000 4,200 Climbing New York Center